Atkins, Arkansas
Current Conditions -  °F | °C
As of 7:53 PM on Wednesday 17 Dec 2014 (Local Time) from KRUE Reporting Station
Moderate Rain Moderate Rain  
Wind Chill: 37°   Ceiling: 8000
Heat Index: 37°   Visibility: 5mi
Dew Point: 35°   Wind: 3mph
Humidity: 93%   Direction: 50°NE
Pressure: 30.24"   Gusts: NA
Location:  35.25°N, 92.94°W
Report Text: KRUE 180153Z AUTO 05003KT 5SM RA BR OVC080 03/02 A3024 RMK AO2 UPB12E39RAB15 SLP238 P0003 T00280017
Loading
Personal Weather Stations






























Interactive Weather Map New forecast layout! Learn more

10-Day Weather Forecast

Advertisements
Track Severe Weather on mobile